Time;durP1;ratioP1;P1;durP2;ratioP2;P2;SDS_P1;SDS_P2;PMS_P1;PMS_P2;Temp;Humidity;BMP_temperature;BMP_pressure;BME280_temperature;BME280_humidity;BME280_pressure;Samples;Min_cycle;Max_cycle;Signal;HPM_P1;HPM_P2
2021/12/20 00:00:43;;;;;;;2.17;1.30;;;19.90;59.30;;;;;;5019483;28;88361;-60
2021/12/20 00:03:09;;;;;;;4.20;1.45;;;19.90;59.40;;;;;;5014680;28;88128;-60
2021/12/20 00:05:37;;;;;;;2.75;1.27;;;19.90;59.40;;;;;;5013382;28;87057;-59
2021/12/20 00:08:03;;;;;;;2.28;1.17;;;19.90;59.40;;;;;;5018833;28;89194;-60
2021/12/20 00:10:28;;;;;;;3.33;1.25;;;19.90;59.40;;;;;;5016887;28;88142;-59
2021/12/20 00:12:54;;;;;;;2.78;1.27;;;19.90;59.40;;;;;;5020376;28;87537;-60
2021/12/20 00:15:20;;;;;;;2.60;1.20;;;19.90;59.40;;;;;;5016051;28;87781;-60
2021/12/20 00:17:46;;;;;;;4.43;1.45;;;19.90;59.40;;;;;;5022353;27;87926;-59
2021/12/20 00:20:12;;;;;;;3.60;1.92;;;19.90;59.40;;;;;;5019824;28;87465;-60
2021/12/20 00:22:39;;;;;;;3.03;1.15;;;19.90;59.50;;;;;;5024427;28;87866;-59
2021/12/20 00:25:08;;;;;;;2.70;1.45;;;19.80;59.40;;;;;;5013767;28;88056;-60
2021/12/20 00:27:33;;;;;;;4.78;1.35;;;19.80;59.50;;;;;;5018633;28;87081;-60
2021/12/20 00:29:59;;;;;;;2.95;1.40;;;19.80;59.50;;;;;;5018449;28;87703;-60
2021/12/20 00:32:25;;;;;;;2.50;1.13;;;19.80;59.50;;;;;;4993654;28;89187;-60
2021/12/20 00:34:51;;;;;;;2.67;1.08;;;19.80;59.50;;;;;;5017848;28;88812;-60
2021/12/20 00:42:45;;;;;;;2.85;1.17;;;19.80;59.60;;;;;;5019723;28;88009;-60
2021/12/20 00:45:12;;;;;;;4.80;1.58;;;19.70;59.50;;;;;;5018725;28;88054;-60
2021/12/20 00:47:39;;;;;;;2.88;1.45;;;19.80;59.60;;;;;;5016677;28;87549;-60
2021/12/20 00:50:06;;;;;;;3.00;1.33;;;19.70;59.60;;;;;;5021576;28;87198;-60
2021/12/20 00:52:32;;;;;;;2.92;1.40;;;19.70;59.60;;;;;;5020582;28;89776;-60
2021/12/20 00:54:58;;;;;;;3.25;1.33;;;19.70;59.60;;;;;;5017819;28;88460;-60
2021/12/20 00:57:23;;;;;;;1.73;1.15;;;19.70;59.70;;;;;;5019024;28;89055;-60
2021/12/20 00:59:49;;;;;;;4.50;1.08;;;19.70;59.70;;;;;;5021505;28;87663;-60
2021/12/20 01:02:17;;;;;;;2.90;1.25;;;19.70;59.70;;;;;;5019802;28;89374;-60
2021/12/20 01:04:43;;;;;;;2.60;1.55;;;19.70;59.70;;;;;;5017972;28;88225;-59
2021/12/20 01:07:08;;;;;;;1.33;1.00;;;19.70;59.70;;;;;;5019394;28;88032;-60
2021/12/20 01:09:34;;;;;;;1.67;0.80;;;19.70;59.70;;;;;;4995040;28;88778;-60
2021/12/20 01:12:05;;;;;;;1.75;1.20;;;19.70;59.80;;;;;;5017986;28;87707;-60
2021/12/20 01:14:33;;;;;;;1.33;1.10;;;19.70;59.80;;;;;;5022071;28;87521;-60
2021/12/20 01:17:04;;;;;;;1.60;1.10;;;19.60;59.70;;;;;;5020516;28;87872;-61
2021/12/20 01:19:31;;;;;;;3.13;1.10;;;19.70;59.80;;;;;;5020633;28;87981;-60
2021/12/20 01:21:56;;;;;;;2.67;1.08;;;19.60;59.80;;;;;;5015865;28;91603;-60
2021/12/20 01:24:22;;;;;;;1.60;1.17;;;19.60;59.80;;;;;;5021497;28;88348;-60
2021/12/20 01:26:47;;;;;;;3.03;1.17;;;19.60;59.90;;;;;;5018546;28;87428;-60
2021/12/20 01:29:13;;;;;;;1.52;1.00;;;19.60;59.90;;;;;;5022020;28;87812;-61
2021/12/20 01:31:39;;;;;;;2.08;1.33;;;19.60;59.90;;;;;;4994043;28;91027;-60
2021/12/20 01:34:05;;;;;;;2.33;1.20;;;19.60;59.90;;;;;;5018733;28;89306;-60
2021/12/20 01:36:31;;;;;;;3.10;1.25;;;19.60;60.00;;;;;;5010895;28;87167;-60
2021/12/20 01:38:56;;;;;;;1.33;0.88;;;19.60;60.00;;;;;;5019109;28;87224;-60
2021/12/20 01:41:22;;;;;;;2.47;1.08;;;19.60;60.00;;;;;;5022419;28;88270;-60
2021/12/20 01:43:47;;;;;;;4.95;1.48;;;19.60;60.00;;;;;;5018123;28;88523;-60
2021/12/20 01:46:13;;;;;;;3.70;1.63;;;19.60;60.10;;;;;;5016284;28;89516;-60
2021/12/20 01:48:41;;;;;;;2.08;1.20;;;19.60;60.10;;;;;;5017635;28;87942;-60
2021/12/20 01:53:34;;;;;;;4.13;1.10;;;19.60;60.20;;;;;;5022007;28;88551;-60
2021/12/20 01:56:00;;;;;;;1.80;1.00;;;19.60;60.20;;;;;;5017444;28;87810;-60
2021/12/20 01:58:28;;;;;;;5.50;1.52;;;19.60;60.20;;;;;;5016970;28;87678;-60
2021/12/20 02:03:38;;;;;;;2.33;1.08;;;19.50;60.20;;;;;;5021780;28;86892;-61
2021/12/20 02:06:09;;;;;;;2.45;1.55;;;19.50;60.30;;;;;;5017037;28;87693;-60
2021/12/20 02:08:34;;;;;;;1.75;1.17;;;19.50;60.30;;;;;;5015393;28;87691;-60
2021/12/20 02:11:10;;;;;;;2.63;1.38;;;19.50;60.30;;;;;;5020215;28;89651;-61
2021/12/20 02:13:37;;;;;;;1.40;1.10;;;19.50;60.30;;;;;;5016867;28;88854;-60
2021/12/20 02:16:04;;;;;;;2.47;1.17;;;19.50;60.40;;;;;;5020613;28;87959;-60
2021/12/20 02:18:30;;;;;;;1.83;1.25;;;19.50;60.40;;;;;;5019572;28;88074;-61
2021/12/20 02:20:57;;;;;;;1.73;1.00;;;19.50;60.50;;;;;;5018599;28;88297;-60
2021/12/20 02:23:23;;;;;;;8.73;1.42;;;19.50;60.50;;;;;;5019241;28;87793;-60
2021/12/20 02:25:49;;;;;;;2.55;1.05;;;19.50;60.50;;;;;;5020058;28;88192;-60
2021/12/20 02:28:17;;;;;;;2.90;0.88;;;19.50;60.50;;;;;;5012401;28;87014;-60
2021/12/20 02:38:50;;;;;;;1.73;1.00;;;19.40;60.50;;;;;;5021903;28;87163;-60
2021/12/20 02:41:19;;;;;;;2.03;1.00;;;19.50;60.60;;;;;;5019733;27;88531;-60
2021/12/20 02:43:58;;;;;;;1.20;0.80;;;19.40;60.60;;;;;;5018120;28;87912;-60
2021/12/20 02:46:46;;;;;;;3.05;0.70;;;19.50;60.60;;;;;;5013484;28;87259;-61
2021/12/20 02:49:18;;;;;;;1.40;1.05;;;19.50;60.70;;;;;;5010116;28;87804;-60
2021/12/20 02:51:45;;;;;;;1.30;1.00;;;19.50;60.70;;;;;;5016150;28;87281;-60
2021/12/20 02:54:12;;;;;;;4.88;1.33;;;19.50;60.70;;;;;;5021466;28;88447;-60
2021/12/20 02:56:38;;;;;;;1.73;0.90;;;19.50;60.70;;;;;;5016803;28;88039;-60
2021/12/20 02:59:06;;;;;;;1.50;1.10;;;19.40;60.70;;;;;;5016338;28;87285;-61
2021/12/20 03:01:33;;;;;;;2.28;1.15;;;19.50;60.70;;;;;;5022393;28;88999;-60
2021/12/20 03:04:00;;;;;;;2.22;0.98;;;19.40;60.70;;;;;;5016342;28;89914;-60
2021/12/20 03:06:29;;;;;;;2.35;1.15;;;19.40;60.70;;;;;;5016799;28;87674;-59
2021/12/20 03:08:57;;;;;;;1.00;0.90;;;19.40;60.70;;;;;;5016023;28;87413;-60
2021/12/20 03:11:25;;;;;;;3.42;1.08;;;19.40;60.70;;;;;;5015963;28;88998;-60
2021/12/20 03:13:56;;;;;;;2.00;0.93;;;19.40;60.70;;;;;;5021839;28;87806;-61
2021/12/20 03:16:22;;;;;;;4.32;1.52;;;19.40;60.80;;;;;;5016614;28;87797;-60
2021/12/20 03:18:47;;;;;;;2.78;1.27;;;19.40;60.80;;;;;;5023057;28;87348;-60
2021/12/20 03:21:13;;;;;;;1.65;0.93;;;19.40;60.80;;;;;;5014814;28;87712;-60
2021/12/20 03:23:39;;;;;;;2.50;0.90;;;19.40;60.80;;;;;;5022374;28;87615;-60
2021/12/20 03:26:05;;;;;;;1.02;0.80;;;19.40;60.80;;;;;;5016542;28;89134;-60
2021/12/20 03:28:31;;;;;;;1.17;1.00;;;19.40;60.80;;;;;;5015149;28;87346;-61
2021/12/20 03:30:56;;;;;;;3.00;1.20;;;19.40;60.80;;;;;;5015539;28;88183;-60
2021/12/20 03:33:22;;;;;;;1.73;0.70;;;19.30;60.80;;;;;;5015589;28;88150;-60
2021/12/20 03:35:48;;;;;;;2.40;0.95;;;19.40;60.80;;;;;;5006916;28;87615;-60
2021/12/20 03:38:14;;;;;;;2.67;0.93;;;19.40;60.80;;;;;;5015627;28;87273;-60
2021/12/20 03:40:40;;;;;;;4.15;1.15;;;19.40;60.80;;;;;;5020608;28;88767;-60
2021/12/20 03:43:06;;;;;;;1.50;1.02;;;19.30;60.80;;;;;;5018613;28;87831;-61
2021/12/20 03:45:33;;;;;;;1.52;1.00;;;19.30;60.80;;;;;;5011551;28;87318;-60
2021/12/20 03:47:59;;;;;;;3.40;0.90;;;19.40;60.80;;;;;;5019060;28;87416;-61
2021/12/20 03:50:27;;;;;;;1.42;0.88;;;19.30;60.80;;;;;;5008569;28;89492;-60
2021/12/20 03:52:53;;;;;;;2.15;1.02;;;19.30;60.80;;;;;;5022848;28;87889;-59
2021/12/20 03:55:18;;;;;;;1.83;1.20;;;19.30;60.80;;;;;;5022616;28;88013;-61
2021/12/20 03:57:44;;;;;;;2.47;1.27;;;19.30;60.90;;;;;;5018507;28;87450;-60
2021/12/20 04:00:13;;;;;;;1.55;0.90;;;19.30;60.90;;;;;;5022223;28;87388;-60
2021/12/20 04:02:42;;;;;;;1.15;0.80;;;19.30;60.90;;;;;;5022598;28;87598;-60
2021/12/20 04:05:09;;;;;;;3.75;0.90;;;19.30;60.90;;;;;;5016059;28;87444;-60
2021/12/20 04:07:35;;;;;;;1.50;0.93;;;19.30;60.90;;;;;;5019001;28;86717;-60
2021/12/20 04:10:01;;;;;;;1.25;0.90;;;19.30;60.90;;;;;;5017913;28;88571;-60
2021/12/20 04:12:26;;;;;;;0.68;0.68;;;19.30;61.40;;;;;;5023117;28;88069;-60
2021/12/20 04:14:52;;;;;;;1.65;1.02;;;19.30;60.90;;;;;;5019776;28;88149;-60
2021/12/20 04:17:18;;;;;;;1.77;0.80;;;19.30;60.90;;;;;;5018849;28;88196;-60
2021/12/20 04:19:43;;;;;;;1.58;1.20;;;19.30;60.90;;;;;;5018450;28;87848;-60
2021/12/20 04:22:10;;;;;;;2.97;1.10;;;19.30;60.90;;;;;;5023271;28;87977;-60
2021/12/20 04:24:36;;;;;;;2.20;1.20;;;19.30;60.90;;;;;;5021415;28;87132;-60
2021/12/20 04:27:02;;;;;;;2.25;0.80;;;19.30;60.90;;;;;;5016534;28;87957;-60
2021/12/20 04:29:29;;;;;;;1.15;0.90;;;19.20;60.80;;;;;;5023029;28;88124;-60
2021/12/20 04:31:54;;;;;;;2.15;1.00;;;19.30;60.90;;;;;;5018237;28;87340;-60
2021/12/20 04:34:20;;;;;;;4.97;1.00;;;19.30;60.90;;;;;;5022414;28;87558;-59
2021/12/20 04:36:46;;;;;;;0.98;0.88;;;19.20;60.80;;;;;;5019675;28;87114;-60
2021/12/20 04:39:14;;;;;;;2.50;0.82;;;19.20;60.90;;;;;;5022996;28;89793;-61
2021/12/20 04:41:40;;;;;;;1.30;0.60;;;19.20;60.90;;;;;;5018869;28;89289;-60
2021/12/20 04:44:05;;;;;;;2.05;0.80;;;19.20;60.90;;;;;;5024303;28;88509;-60
2021/12/20 04:46:31;;;;;;;1.70;0.93;;;19.20;60.90;;;;;;5012355;28;88097;-60
2021/12/20 04:48:57;;;;;;;1.83;1.00;;;19.20;60.90;;;;;;5018733;28;88043;-60
2021/12/20 04:51:23;;;;;;;1.50;0.98;;;19.20;60.90;;;;;;5018557;28;87988;-60
2021/12/20 04:53:48;;;;;;;2.20;0.98;;;19.20;60.90;;;;;;5018749;28;87821;-60
2021/12/20 04:56:14;;;;;;;3.08;1.20;;;19.20;60.90;;;;;;5024049;28;87710;-60
2021/12/20 04:58:40;;;;;;;3.00;0.80;;;19.20;60.90;;;;;;5016636;28;89522;-60
2021/12/20 05:01:06;;;;;;;1.15;0.90;;;19.20;60.90;;;;;;5023473;28;88685;-61
2021/12/20 05:03:31;;;;;;;1.20;0.75;;;19.20;60.90;;;;;;5018710;28;88335;-60
2021/12/20 05:05:57;;;;;;;2.00;0.80;;;19.20;60.90;;;;;;5016419;28;88163;-60
2021/12/20 05:08:23;;;;;;;1.85;1.10;;;19.20;61.00;;;;;;5013107;28;88426;-60
2021/12/20 05:10:49;;;;;;;2.08;0.90;;;19.20;60.90;;;;;;5017320;28;88155;-61
2021/12/20 05:13:14;;;;;;;2.42;0.95;;;19.20;60.90;;;;;;4995570;28;88251;-60
2021/12/20 05:15:41;;;;;;;1.15;0.68;;;19.20;60.90;;;;;;5020117;28;87945;-60
2021/12/20 05:18:08;;;;;;;2.60;0.73;;;19.20;60.90;;;;;;5020972;28;87858;-60
2021/12/20 05:20:35;;;;;;;2.25;0.73;;;19.20;60.90;;;;;;5020351;28;88378;-60
2021/12/20 05:23:02;;;;;;;2.67;0.70;;;19.10;60.90;;;;;;5017808;28;87450;-60
2021/12/20 05:25:28;;;;;;;1.33;0.70;;;19.20;60.90;;;;;;5018437;28;88093;-60
2021/12/20 05:27:54;;;;;;;1.85;0.82;;;19.20;61.00;;;;;;5014243;28;88339;-60
2021/12/20 05:30:20;;;;;;;0.93;0.82;;;19.10;60.90;;;;;;5017431;28;88756;-60
2021/12/20 05:32:47;;;;;;;3.35;0.90;;;19.10;60.90;;;;;;5021446;28;88263;-60
2021/12/20 05:35:14;;;;;;;1.17;0.60;;;19.10;60.90;;;;;;5017972;28;87934;-60
2021/12/20 05:37:41;;;;;;;1.85;0.77;;;19.10;60.90;;;;;;5016560;28;88064;-60
2021/12/20 05:40:09;;;;;;;3.08;1.00;;;19.10;60.90;;;;;;5019364;28;88112;-60
2021/12/20 05:42:35;;;;;;;1.40;0.65;;;19.10;60.90;;;;;;5020009;28;88037;-60
2021/12/20 05:45:00;;;;;;;3.25;0.90;;;19.10;60.90;;;;;;5018057;28;86621;-60
2021/12/20 05:47:26;;;;;;;1.23;0.80;;;19.10;61.00;;;;;;5017040;28;88381;-60
2021/12/20 05:49:52;;;;;;;2.00;0.70;;;19.10;60.90;;;;;;5016573;28;87653;-60
2021/12/20 05:52:18;;;;;;;2.17;0.90;;;19.10;61.00;;;;;;5016290;28;88967;-60
2021/12/20 05:54:45;;;;;;;1.50;0.60;;;19.10;61.00;;;;;;5021056;28;87738;-60
2021/12/20 05:57:11;;;;;;;1.63;0.90;;;19.10;61.00;;;;;;5018063;28;88486;-60
2021/12/20 05:59:37;;;;;;;1.88;0.80;;;19.10;61.00;;;;;;5022131;28;88270;-60
2021/12/20 06:02:03;;;;;;;1.52;0.60;;;19.10;61.00;;;;;;5017650;28;87403;-60
2021/12/20 06:04:28;;;;;;;4.43;0.90;;;19.00;61.00;;;;;;5017077;28;87707;-60
2021/12/20 06:06:54;;;;;;;1.65;0.80;;;19.10;61.10;;;;;;4991663;28;89420;-60
2021/12/20 06:09:19;;;;;;;1.15;0.80;;;19.00;60.90;;;;;;5016509;28;88509;-60
2021/12/20 06:11:45;;;;;;;1.98;0.88;;;19.10;61.00;;;;;;5023721;28;87240;-61
2021/12/20 06:14:11;;;;;;;1.40;1.00;;;19.00;61.00;;;;;;5016706;28;87830;-60
2021/12/20 06:16:36;;;;;;;2.88;1.00;;;19.00;61.00;;;;;;5014943;28;88817;-61
2021/12/20 06:19:03;;;;;;;1.67;0.75;;;19.00;61.00;;;;;;5017806;28;87938;-60
2021/12/20 06:21:29;;;;;;;2.80;0.80;;;19.00;61.00;;;;;;5022355;28;87218;-60
2021/12/20 06:23:54;;;;;;;1.40;0.80;;;19.00;61.00;;;;;;5012150;28;88384;-60
2021/12/20 06:26:23;;;;;;;1.00;0.80;;;19.10;61.10;;;;;;5019307;28;88245;-60
2021/12/20 06:28:51;;;;;;;1.15;0.75;;;19.00;61.00;;;;;;5016725;28;88186;-60
2021/12/20 06:31:17;;;;;;;1.20;0.60;;;19.00;61.00;;;;;;5017324;28;87133;-60
2021/12/20 06:33:44;;;;;;;2.35;0.60;;;19.10;61.10;;;;;;5021801;28;87178;-60
2021/12/20 06:36:09;;;;;;;1.05;0.68;;;19.00;61.00;;;;;;5007375;28;92234;-60
2021/12/20 06:38:42;;;;;;;1.05;0.60;;;19.00;61.00;;;;;;5015797;28;87701;-60
2021/12/20 06:41:08;;;;;;;1.47;0.77;;;19.00;61.00;;;;;;5018152;28;88817;-61
2021/12/20 06:43:33;;;;;;;1.65;1.05;;;19.00;61.10;;;;;;5014942;28;87477;-60
2021/12/20 06:45:59;;;;;;;1.70;0.68;;;19.00;61.10;;;;;;5016318;28;87091;-60
2021/12/20 06:48:25;;;;;;;2.22;0.90;;;19.00;61.10;;;;;;5018212;28;88048;-60
2021/12/20 06:50:50;;;;;;;2.10;0.82;;;19.00;61.10;;;;;;5020672;28;87966;-60
2021/12/20 06:53:16;;;;;;;1.42;0.80;;;19.00;61.10;;;;;;5018111;28;87785;-60
2021/12/20 06:55:41;;;;;;;1.05;0.70;;;19.00;61.10;;;;;;5019776;28;87447;-59
2021/12/20 06:58:07;;;;;;;4.05;0.98;;;19.00;61.20;;;;;;5019827;28;86887;-59
2021/12/20 07:00:33;;;;;;;3.03;1.13;;;19.00;61.40;;;;;;5017054;28;88133;-60
2021/12/20 07:02:59;;;;;;;2.95;0.82;;;19.00;61.70;;;;;;5019581;28;88539;-59
2021/12/20 07:05:25;;;;;;;2.25;0.90;;;19.00;61.70;;;;;;5018977;28;89951;-60
2021/12/20 07:07:51;;;;;;;3.72;0.70;;;18.90;61.60;;;;;;5013474;28;88762;-60
2021/12/20 07:10:16;;;;;;;2.10;0.85;;;18.90;61.60;;;;;;5016542;28;88415;-60
2021/12/20 07:12:42;;;;;;;2.05;0.77;;;19.00;61.70;;;;;;5014835;28;87213;-60
2021/12/20 07:15:13;;;;;;;7.45;0.85;;;19.00;61.70;;;;;;5020260;28;88060;-60
2021/12/20 07:17:40;;;;;;;3.58;0.80;;;18.90;61.70;;;;;;5015152;28;87920;-60
2021/12/20 07:20:07;;;;;;;3.72;0.70;;;18.90;61.60;;;;;;5019635;28;87850;-61
2021/12/20 07:22:33;;;;;;;4.63;0.80;;;19.00;61.70;;;;;;5017268;28;87343;-60
2021/12/20 07:24:59;;;;;;;6.20;0.90;;;19.10;61.70;;;;;;5020482;28;88178;-60
2021/12/20 07:27:26;;;;;;;2.85;0.93;;;19.10;61.40;;;;;;5014530;28;87757;-60
2021/12/20 07:29:51;;;;;;;4.90;1.25;;;19.20;61.10;;;;;;5017817;28;89098;-62
2021/12/20 07:32:17;;;;;;;9.07;1.63;;;19.30;60.90;;;;;;5018435;28;87833;-60
2021/12/20 07:34:43;;;;;;;9.07;1.80;;;19.40;60.70;;;;;;5024628;28;88824;-60
2021/12/20 07:37:08;;;;;;;13.13;2.05;;;19.50;60.30;;;;;;5019081;28;88058;-60
2021/12/20 07:39:35;;;;;;;10.77;2.50;;;19.60;60.10;;;;;;5018959;28;88094;-60
2021/12/20 07:42:01;;;;;;;8.57;2.10;;;19.70;59.90;;;;;;5016990;28;87631;-60
2021/12/20 07:44:27;;;;;;;11.55;3.30;;;19.70;59.60;;;;;;5020542;28;88216;-60
2021/12/20 07:46:53;;;;;;;12.35;3.05;;;19.80;59.60;;;;;;5025404;28;88683;-60
2021/12/20 07:49:19;;;;;;;8.85;2.92;;;19.90;59.40;;;;;;5015983;28;87574;-60
2021/12/20 07:51:45;;;;;;;16.45;3.10;;;20.00;59.20;;;;;;5019136;28;87936;-60
2021/12/20 07:54:11;;;;;;;11.27;3.00;;;20.00;59.00;;;;;;5009758;28;92239;-60
2021/12/20 07:56:37;;;;;;;25.60;4.82;;;20.00;58.80;;;;;;5024361;28;88767;-60
2021/12/20 07:59:03;;;;;;;42.45;6.70;;;20.10;58.70;;;;;;4997769;28;87830;-60
2021/12/20 08:01:31;;;;;;;45.83;5.70;;;20.10;58.60;;;;;;5020688;28;87949;-60
2021/12/20 08:03:57;;;;;;;42.95;8.73;;;20.10;58.40;;;;;;5019239;28;88163;-60
2021/12/20 08:06:22;;;;;;;48.75;7.25;;;20.20;58.50;;;;;;5017097;28;88495;-60
2021/12/20 08:08:48;;;;;;;37.53;7.22;;;20.20;58.30;;;;;;5020950;28;88159;-60
2021/12/20 08:11:14;;;;;;;39.35;6.65;;;20.20;58.20;;;;;;5023525;28;87162;-60
2021/12/20 08:13:44;;;;;;;49.33;6.50;;;20.20;58.20;;;;;;5019895;28;87725;-60
2021/12/20 08:16:14;;;;;;;29.10;5.72;;;20.20;58.10;;;;;;4971473;28;88295;-59
2021/12/20 08:18:40;;;;;;;36.38;6.05;;;20.20;58.00;;;;;;5013927;28;88514;-61
2021/12/20 08:21:06;;;;;;;43.00;7.10;;;20.20;58.00;;;;;;5017915;28;88154;-59
2021/12/20 08:23:32;;;;;;;24.50;6.07;;;20.20;57.90;;;;;;5003310;28;91665;-58
2021/12/20 08:25:57;;;;;;;23.77;6.43;;;20.20;57.90;;;;;;5018335;28;88210;-59
2021/12/20 08:28:23;;;;;;;30.70;5.95;;;20.20;57.90;;;;;;5015114;28;88267;-60
2021/12/20 08:30:49;;;;;;;25.02;5.35;;;20.20;57.90;;;;;;5009800;28;87309;-58
2021/12/20 08:33:14;;;;;;;29.85;6.10;;;20.20;57.80;;;;;;5016805;28;91061;-58
2021/12/20 08:35:42;;;;;;;27.00;5.82;;;20.20;57.70;;;;;;5014942;28;88369;-59
2021/12/20 08:38:08;;;;;;;29.63;5.20;;;20.30;57.70;;;;;;5007555;28;88168;-59
2021/12/20 08:40:34;;;;;;;23.27;6.63;;;20.30;57.70;;;;;;5020034;28;87578;-59
2021/12/20 08:43:01;;;;;;;28.60;5.25;;;20.30;57.50;;;;;;4995438;28;90371;-59
2021/12/20 08:45:27;;;;;;;20.77;5.65;;;20.40;57.50;;;;;;5008925;28;90029;-58
2021/12/20 08:47:53;;;;;;;22.80;5.55;;;20.40;57.40;;;;;;5015491;28;87799;-59
2021/12/20 08:50:22;;;;;;;25.42;5.97;;;20.40;57.20;;;;;;5014800;28;88051;-60
2021/12/20 08:52:48;;;;;;;22.52;5.25;;;20.40;57.10;;;;;;5013142;27;90085;-62
2021/12/20 08:55:14;;;;;;;27.83;6.03;;;20.50;57.40;;;;;;5021211;28;87727;-59
2021/12/20 08:57:41;;;;;;;19.30;4.78;;;20.50;57.50;;;;;;5011937;28;88051;-61
2021/12/20 09:00:11;;;;;;;24.70;5.18;;;20.60;57.40;;;;;;5014115;28;86904;-60
2021/12/20 09:02:37;;;;;;;21.17;5.07;;;20.50;57.20;;;;;;4992449;28;92641;-61
2021/12/20 09:05:04;;;;;;;23.83;5.07;;;20.60;57.00;;;;;;5021477;28;88349;-62
2021/12/20 09:07:29;;;;;;;19.75;5.35;;;20.70;56.80;;;;;;5010347;28;89384;-61
2021/12/20 09:09:55;;;;;;;19.30;3.92;;;20.70;56.60;;;;;;5014756;28;87836;-59
2021/12/20 09:12:21;;;;;;;20.02;4.85;;;20.70;56.90;;;;;;5011667;28;88543;-62
2021/12/20 09:14:48;;;;;;;18.13;4.85;;;20.80;56.80;;;;;;4993026;28;88613;-63
2021/12/20 09:17:14;;;;;;;19.05;4.30;;;20.80;56.40;;;;;;5003190;28;87880;-61
2021/12/20 09:19:39;;;;;;;16.48;4.32;;;20.80;56.20;;;;;;5015507;28;87283;-60
2021/12/20 09:22:06;;;;;;;12.00;4.03;;;20.80;56.00;;;;;;5021797;28;87800;-62
2021/12/20 09:24:35;;;;;;;16.67;4.22;;;20.80;55.90;;;;;;5021410;28;87374;-62
2021/12/20 09:27:02;;;;;;;19.15;4.60;;;20.80;55.90;;;;;;5013659;28;87850;-62
2021/12/20 09:29:28;;;;;;;15.52;4.30;;;20.80;55.90;;;;;;5006030;28;89848;-60
2021/12/20 09:31:55;;;;;;;19.42;5.00;;;20.90;56.10;;;;;;5015805;28;89277;-58
2021/12/20 09:34:21;;;;;;;19.27;3.92;;;20.80;55.90;;;;;;5019544;28;88770;-59
2021/12/20 09:36:46;;;;;;;13.70;3.60;;;20.90;55.90;;;;;;5017077;28;87381;-64
2021/12/20 09:39:15;;;;;;;18.02;3.85;;;20.90;55.80;;;;;;5010003;28;88502;-61
2021/12/20 09:44:08;;;;;;;15.40;3.80;;;20.90;55.90;;;;;;5014842;28;88172;-59
2021/12/20 09:46:34;;;;;;;16.88;3.97;;;20.90;56.30;;;;;;5007413;28;88133;-59
2021/12/20 09:49:00;;;;;;;15.73;3.83;;;20.90;55.70;;;;;;5002255;28;88246;-60
2021/12/20 09:51:26;;;;;;;15.07;4.03;;;20.90;55.60;;;;;;4994257;28;89389;-59
2021/12/20 09:53:54;;;;;;;16.80;3.67;;;20.90;55.60;;;;;;5007654;28;89716;-59
2021/12/20 09:56:26;;;;;;;13.75;3.50;;;20.90;55.50;;;;;;4990924;28;89471;-61
2021/12/20 09:58:53;;;;;;;13.38;3.70;;;20.90;55.50;;;;;;5007468;28;87957;-60
2021/12/20 10:01:22;;;;;;;13.60;3.50;;;21.00;56.00;;;;;;4998036;28;89151;-60
2021/12/20 10:03:49;;;;;;;15.43;3.88;;;21.00;55.60;;;;;;5006669;28;89316;-59
2021/12/20 10:06:15;;;;;;;15.00;4.00;;;21.00;55.80;;;;;;4995620;28;88287;-60
2021/12/20 10:08:50;;;;;;;14.55;3.92;;;21.00;55.20;;;;;;5018044;28;87816;-59
2021/12/20 10:11:29;;;;;;;13.77;3.45;;;21.00;55.00;;;;;;5003432;28;90173;-59
2021/12/20 10:14:05;;;;;;;15.05;3.70;;;21.00;54.90;;;;;;4992345;28;91443;-60
2021/12/20 10:16:31;;;;;;;13.32;2.90;;;21.00;54.80;;;;;;4994278;28;88097;-62
2021/12/20 10:19:00;;;;;;;11.07;3.00;;;21.00;54.70;;;;;;4996471;28;91470;-62
2021/12/20 10:21:41;;;;;;;16.23;3.72;;;21.00;54.70;;;;;;5017609;28;90093;-61
2021/12/20 10:24:08;;;;;;;11.65;2.90;;;20.90;54.70;;;;;;5015684;28;88274;-62
2021/12/20 10:26:42;;;;;;;12.27;3.55;;;20.90;54.90;;;;;;5020685;28;87176;-62
2021/12/20 10:29:21;;;;;;;9.02;3.13;;;20.90;55.00;;;;;;4997261;28;87617;-60
2021/12/20 10:31:48;;;;;;;10.38;3.05;;;20.90;55.70;;;;;;5021195;28;88383;-62
2021/12/20 10:34:18;;;;;;;14.20;2.75;;;20.90;55.80;;;;;;5015291;28;88376;-62
2021/12/20 10:36:55;;;;;;;17.00;3.63;;;20.90;55.80;;;;;;5011250;28;87574;-66
2021/12/20 10:39:45;;;;;;;14.55;3.67;;;20.90;56.00;;;;;;4996770;28;90558;-62
2021/12/20 10:42:19;;;;;;;11.40;3.45;;;20.90;55.70;;;;;;4994897;28;91416;-65
2021/12/20 10:45:08;;;;;;;8.38;2.75;;;20.90;55.40;;;;;;4994928;28;89591;-63
2021/12/20 10:47:34;;;;;;;12.35;3.80;;;20.90;55.20;;;;;;5017456;28;88346;-63
2021/12/20 10:50:29;;;;;;;12.30;3.58;;;20.90;55.20;;;;;;5016307;28;87523;-63
2021/12/20 10:53:17;;;;;;;7.55;3.20;;;20.90;55.10;;;;;;5006949;28;91031;-63
2021/12/20 10:55:46;;;;;;;11.90;3.22;;;20.80;54.90;;;;;;4992277;28;88803;-63
2021/12/20 10:58:30;;;;;;;8.07;2.53;;;20.80;54.90;;;;;;5015875;28;88198;-63
2021/12/20 11:03:56;;;;;;;12.82;3.33;;;20.80;54.80;;;;;;5016564;28;88154;-62
2021/12/20 11:09:05;;;;;;;8.88;2.53;;;20.80;54.80;;;;;;5017752;28;87987;-62
2021/12/20 11:11:33;;;;;;;9.82;2.58;;;20.70;54.80;;;;;;5018816;28;87625;-63
2021/12/20 11:14:00;;;;;;;10.90;3.05;;;20.70;54.80;;;;;;5000134;28;93324;-63
2021/12/20 11:16:30;;;;;;;10.40;3.08;;;20.60;54.80;;;;;;4993464;28;89276;-63
2021/12/20 11:19:11;;;;;;;11.13;2.95;;;20.60;54.80;;;;;;5007449;28;88181;-63
2021/12/20 11:21:49;;;;;;;8.13;2.90;;;20.60;55.00;;;;;;5014700;28;88293;-60
2021/12/20 11:24:21;;;;;;;10.05;2.90;;;20.60;55.10;;;;;;5020910;28;91531;-58
2021/12/20 11:26:47;;;;;;;8.40;3.00;;;20.50;55.10;;;;;;5015737;28;88124;-58
2021/12/20 11:29:13;;;;;;;11.77;2.92;;;20.50;55.20;;;;;;5021671;28;87686;-59
2021/12/20 11:31:39;;;;;;;13.98;3.15;;;20.50;55.50;;;;;;5018063;28;86590;-59
2021/12/20 11:34:06;;;;;;;11.52;3.53;;;20.50;55.70;;;;;;5011088;28;87282;-58
2021/12/20 11:36:32;;;;;;;10.10;2.72;;;20.50;55.90;;;;;;5000586;28;89139;-59
2021/12/20 11:38:58;;;;;;;11.65;2.97;;;20.50;56.10;;;;;;5016974;28;88816;-59
2021/12/20 11:41:28;;;;;;;12.05;3.67;;;20.50;56.20;;;;;;5016034;28;88038;-58
2021/12/20 11:43:59;;;;;;;14.85;2.90;;;20.50;56.40;;;;;;5000399;28;89381;-59
2021/12/20 11:46:39;;;;;;;8.15;2.55;;;20.40;56.40;;;;;;5021446;28;87324;-59
2021/12/20 11:49:06;;;;;;;11.13;2.92;;;20.40;56.50;;;;;;5016456;28;87921;-58
2021/12/20 11:51:59;;;;;;;15.68;3.53;;;20.40;56.70;;;;;;5021303;28;88428;-58
2021/12/20 11:54:51;;;;;;;9.82;2.45;;;20.40;56.80;;;;;;5010998;28;89039;-58
2021/12/20 11:57:36;;;;;;;12.75;2.60;;;20.40;56.80;;;;;;5016408;28;88128;-59
2021/12/20 12:00:07;;;;;;;9.80;2.90;;;20.30;56.90;;;;;;5018517;28;88138;-59
2021/12/20 12:02:41;;;;;;;8.15;2.60;;;20.30;56.90;;;;;;5017667;28;88069;-60
2021/12/20 12:05:12;;;;;;;10.95;3.25;;;20.30;57.00;;;;;;5015949;28;89081;-59
2021/12/20 12:07:38;;;;;;;10.48;2.40;;;20.30;57.00;;;;;;5020898;28;88295;-58
2021/12/20 12:10:09;;;;;;;9.75;2.95;;;20.30;57.00;;;;;;5021094;28;87173;-59
2021/12/20 12:12:40;;;;;;;6.95;2.38;;;20.30;57.10;;;;;;5017137;28;87459;-59
2021/12/20 12:15:14;;;;;;;10.02;2.65;;;20.20;57.10;;;;;;5020506;28;88263;-59
2021/12/20 12:18:04;;;;;;;8.48;2.67;;;20.20;57.10;;;;;;5019364;28;88522;-59
2021/12/20 12:20:48;;;;;;;6.88;2.90;;;20.20;57.20;;;;;;5018932;28;88138;-60
2021/12/20 12:23:15;;;;;;;8.55;2.88;;;20.20;57.30;;;;;;5018247;28;86813;-58
2021/12/20 12:25:49;;;;;;;10.98;2.72;;;20.20;57.50;;;;;;5012673;28;88945;-59
2021/12/20 12:28:18;;;;;;;10.75;3.00;;;20.20;57.50;;;;;;5013427;28;87295;-59
2021/12/20 12:30:55;;;;;;;10.13;2.83;;;20.20;57.50;;;;;;5010811;28;88930;-59
2021/12/20 12:33:22;;;;;;;10.20;3.25;;;20.20;57.50;;;;;;5022319;28;87154;-58
2021/12/20 12:35:51;;;;;;;8.50;2.15;;;20.20;57.50;;;;;;5019332;28;88662;-59
2021/12/20 12:40:49;;;;;;;8.73;2.50;;;20.20;57.60;;;;;;4983928;28;87170;-59
2021/12/20 12:43:17;;;;;;;11.35;2.95;;;20.20;57.60;;;;;;5015494;28;88270;-59
2021/12/20 12:45:50;;;;;;;7.70;2.95;;;20.20;57.60;;;;;;5020359;28;88156;-59
2021/12/20 12:48:39;;;;;;;6.30;2.33;;;20.20;57.60;;;;;;5017976;28;87402;-58
2021/12/20 12:51:26;;;;;;;7.30;2.55;;;20.20;57.60;;;;;;5024603;28;88144;-58
2021/12/20 12:53:54;;;;;;;6.95;2.53;;;20.20;57.60;;;;;;5019844;28;90742;-58
2021/12/20 12:56:25;;;;;;;10.75;3.38;;;20.20;57.60;;;;;;5020322;28;89095;-59
2021/12/20 12:59:19;;;;;;;9.15;2.50;;;20.20;57.60;;;;;;5021179;28;89294;-59
2021/12/20 13:01:51;;;;;;;8.15;2.70;;;20.20;57.60;;;;;;5019883;28;87218;-58
2021/12/20 13:04:17;;;;;;;11.25;3.08;;;20.20;57.70;;;;;;5019212;28;87807;-59
2021/12/20 13:06:43;;;;;;;7.30;2.33;;;20.20;57.70;;;;;;5018663;28;88150;-58
2021/12/20 13:09:09;;;;;;;5.28;2.30;;;20.20;57.70;;;;;;5022049;28;90538;-59
2021/12/20 13:11:35;;;;;;;10.82;2.58;;;20.20;57.70;;;;;;5018223;28;87489;-59
2021/12/20 13:14:11;;;;;;;8.10;2.80;;;20.20;57.70;;;;;;5019249;28;87529;-58
2021/12/20 13:16:49;;;;;;;8.48;2.65;;;20.20;57.70;;;;;;5017289;28;87921;-59